createdAt,value
2018-12-18T00:00:22.688Z,100767.72
2018-12-18T00:02:52.594Z,100764.59
2018-12-18T00:05:38.413Z,100767.44
2018-12-18T00:08:07.929Z,100780.78
2018-12-18T00:10:42.746Z,100780.97
2018-12-18T00:13:12.287Z,100784.39
2018-12-18T00:15:41.755Z,100771.61
2018-12-18T00:18:11.254Z,100778.12
2018-12-18T00:20:40.721Z,100767.36
2018-12-18T00:23:10.222Z,100775.76
2018-12-18T00:25:39.689Z,100776.78
2018-12-18T00:28:09.203Z,100771.33
2018-12-18T00:30:38.682Z,100771.80
2018-12-18T00:33:08.198Z,100769.35
2018-12-18T00:35:37.672Z,100781.33
2018-12-18T00:38:07.162Z,100777.34
2018-12-18T00:40:36.653Z,100777.47
2018-12-18T00:43:06.182Z,100780.78
2018-12-18T00:45:35.953Z,100779.55
2018-12-18T00:48:05.491Z,100781.06
2018-12-18T00:50:34.962Z,100777.55
2018-12-18T00:53:04.462Z,100774.52
2018-12-18T00:55:33.943Z,100773.02
2018-12-18T00:58:03.461Z,100776.12
2018-12-18T01:00:32.999Z,100774.69
2018-12-18T01:03:03.306Z,100778.31
2018-12-18T01:05:33.078Z,100782.20
2018-12-18T01:08:02.563Z,100782.77
2018-12-18T01:10:32.133Z,100785.59
2018-12-18T01:13:01.631Z,100786.84
2018-12-18T01:15:31.106Z,100789.10
2018-12-18T01:18:00.610Z,100797.42
2018-12-18T01:20:30.094Z,100800.83
2018-12-18T01:22:59.582Z,100810.25
2018-12-18T01:25:29.502Z,100822.94
2018-12-18T01:27:59.894Z,100825.75
2018-12-18T01:30:29.370Z,100819.52
2018-12-18T01:32:58.854Z,100822.66
2018-12-18T01:35:28.318Z,100817.55
2018-12-18T01:37:57.822Z,100817.17
2018-12-18T01:40:29.282Z,100814.06
2018-12-18T01:42:59.306Z,100822.09
2018-12-18T01:45:28.778Z,100816.33
2018-12-18T01:47:58.278Z,100819.25
2018-12-18T01:50:27.745Z,100818.31
2018-12-18T01:52:57.254Z,100823.22
2018-12-18T01:55:26.726Z,100832.88
2018-12-18T01:57:56.226Z,100827.95
2018-12-18T02:00:25.715Z,100833.72
2018-12-18T02:02:55.205Z,100837.88
2018-12-18T02:05:24.694Z,100835.53
2018-12-18T02:07:54.190Z,100836.18
2018-12-18T02:10:23.670Z,100839.56
2018-12-18T02:12:53.140Z,100836.94
2018-12-18T02:15:22.641Z,100838.74
2018-12-18T02:17:52.323Z,100825.51
2018-12-18T02:20:22.092Z,100823.72
2018-12-18T02:22:51.560Z,100826.27
2018-12-18T02:25:21.565Z,100818.78
2018-12-18T02:27:51.050Z,100815.19
2018-12-18T02:30:20.559Z,100813.50
2018-12-18T02:32:50.181Z,100812.08
2018-12-18T02:35:19.981Z,100811.41
2018-12-18T02:37:49.450Z,100810.18
2018-12-18T02:40:18.942Z,100810.18
2018-12-18T02:42:48.435Z,100811.02
2018-12-18T02:45:17.930Z,100811.23
2018-12-18T02:47:47.402Z,100808.31
2018-12-18T02:50:16.916Z,100819.46
2018-12-18T02:52:46.389Z,100820.30
2018-12-18T02:55:16.174Z,100819.53
2018-12-18T02:57:45.754Z,100817.75
2018-12-18T03:00:15.267Z,100818.41
2018-12-18T03:02:44.726Z,100830.67
2018-12-18T03:05:14.595Z,100834.35
2018-12-18T03:07:44.069Z,100828.61
2018-12-18T03:10:14.435Z,100838.52
2018-12-18T03:12:43.906Z,100825.94
2018-12-18T03:15:13.530Z,100827.37
2018-12-18T03:17:43.011Z,100833.89
2018-12-18T03:20:12.518Z,100822.17
2018-12-18T03:22:41.984Z,100825.86
2018-12-18T03:25:11.482Z,100822.75
2018-12-18T03:27:40.958Z,100826.15
2018-12-18T03:30:10.464Z,100817.09
2018-12-18T03:32:45.035Z,100825.86
2018-12-18T03:35:14.530Z,100827.86
2018-12-18T03:37:43.987Z,100820.37
2018-12-18T03:40:14.757Z,100814.44
2018-12-18T03:42:44.258Z,100808.77
2018-12-18T03:45:13.749Z,100813.86
2018-12-18T03:47:43.218Z,100813.67
2018-12-18T03:50:13.359Z,100806.86
2018-12-18T03:52:42.830Z,100806.50
2018-12-18T03:55:12.454Z,100810.10
2018-12-18T03:57:41.923Z,100821.26
2018-12-18T04:00:11.712Z,100826.36
2018-12-18T04:02:41.201Z,100824.84
2018-12-18T04:05:10.710Z,100826.25
2018-12-18T04:07:40.221Z,100827.30
2018-12-18T04:10:09.870Z,100829.00
2018-12-18T04:12:39.354Z,100817.29
2018-12-18T04:15:08.922Z,100817.86
2018-12-18T04:17:38.402Z,100814.44
2018-12-18T04:20:07.905Z,100824.84
2018-12-18T04:22:37.396Z,100832.30
2018-12-18T04:25:06.926Z,100829.64
2018-12-18T04:27:36.408Z,100825.97
2018-12-18T04:30:07.137Z,100828.51
2018-12-18T04:32:36.646Z,100830.59
2018-12-18T04:35:06.487Z,100828.91
2018-12-18T04:37:36.163Z,100826.08
2018-12-18T04:40:06.014Z,100827.30
2018-12-18T04:42:35.517Z,100827.69
2018-12-18T04:45:05.110Z,100833.73
2018-12-18T04:47:34.585Z,100835.60
2018-12-18T04:50:04.217Z,100831.92
2018-12-18T04:52:33.702Z,100826.14
2018-12-18T04:55:03.203Z,100828.50
2018-12-18T04:57:32.678Z,100827.73
2018-12-18T05:00:02.175Z,100827.09
2018-12-18T05:02:31.662Z,100826.15
2018-12-18T05:05:01.143Z,100824.34
2018-12-18T05:07:30.609Z,100813.88
2018-12-18T05:10:00.106Z,100820.77
2018-12-18T05:12:29.583Z,100825.38
2018-12-18T05:14:59.078Z,100828.61
2018-12-18T05:17:28.546Z,100833.79
2018-12-18T05:19:58.110Z,100830.31
2018-12-18T05:22:28.177Z,100834.00
2018-12-18T05:24:57.681Z,100831.74
2018-12-18T05:27:27.154Z,100832.49
2018-12-18T05:29:56.640Z,100829.48
2018-12-18T05:32:26.918Z,100829.36
2018-12-18T05:34:56.777Z,100841.56
2018-12-18T05:37:26.405Z,100833.52
2018-12-18T05:39:55.891Z,100834.57
2018-12-18T05:42:25.361Z,100833.35
2018-12-18T05:44:54.870Z,100841.00
2018-12-18T05:47:24.350Z,100839.58
2018-12-18T05:49:53.837Z,100846.19
2018-12-18T05:52:23.910Z,100854.50
2018-12-18T05:54:53.417Z,100850.53
2018-12-18T05:57:22.881Z,100848.27
2018-12-18T05:59:52.373Z,100850.34
2018-12-18T06:02:21.835Z,100863.41
2018-12-18T06:04:51.338Z,100857.43
2018-12-18T06:07:20.846Z,100857.27
2018-12-18T06:09:50.338Z,100858.28
2018-12-18T06:12:19.809Z,100846.56
2018-12-18T06:14:49.333Z,100850.70
2018-12-18T06:17:18.801Z,100850.70
2018-12-18T06:19:48.286Z,100852.02
2018-12-18T06:22:17.757Z,100863.92
2018-12-18T06:24:47.282Z,100855.83
2018-12-18T06:27:16.746Z,100859.52
2018-12-18T06:29:46.234Z,100859.63
2018-12-18T06:32:15.715Z,100863.95
2018-12-18T06:34:45.222Z,100864.34
2018-12-18T06:37:15.093Z,100867.37
2018-12-18T06:39:44.881Z,100873.02
2018-12-18T06:42:14.359Z,100878.70
2018-12-18T06:44:43.885Z,100872.47
2018-12-18T06:47:13.366Z,100868.48
2018-12-18T06:49:42.862Z,100868.50
2018-12-18T06:52:12.346Z,100872.38
2018-12-18T06:54:41.861Z,100865.68
2018-12-18T06:57:11.340Z,100872.09
2018-12-18T06:59:40.839Z,100869.45
2018-12-18T07:02:10.310Z,100866.53
2018-12-18T07:04:40.926Z,100869.36
2018-12-18T07:07:10.400Z,100870.95
2018-12-18T07:09:39.909Z,100869.82
2018-12-18T07:12:09.389Z,100870.66
2018-12-18T07:14:38.877Z,100870.19
2018-12-18T07:17:08.361Z,100865.73
2018-12-18T07:19:37.857Z,100873.22
2018-12-18T07:22:07.372Z,100872.73
2018-12-18T07:24:36.883Z,100876.44
2018-12-18T07:27:06.358Z,100871.98
2018-12-18T07:29:35.846Z,100874.61
2018-12-18T07:32:05.310Z,100882.64
2018-12-18T07:34:34.820Z,100879.27
2018-12-18T07:37:04.837Z,100883.24
2018-12-18T07:39:34.326Z,100888.94
2018-12-18T07:42:04.118Z,100890.98
2018-12-18T07:44:33.645Z,100896.47
2018-12-18T07:47:03.134Z,100892.52
2018-12-18T07:49:32.641Z,100893.84
2018-12-18T07:52:02.149Z,100899.14
2018-12-18T07:54:31.662Z,100899.53
2018-12-18T07:57:01.137Z,100898.19
2018-12-18T07:59:30.618Z,100905.48
2018-12-18T08:02:00.081Z,100901.31
2018-12-18T08:04:29.608Z,100907.55
2018-12-18T08:06:59.098Z,100903.03
2018-12-18T08:09:28.562Z,100900.84
2018-12-18T08:11:58.050Z,100908.98
2018-12-18T08:14:27.714Z,100908.52
2018-12-18T08:16:57.407Z,100907.09
2018-12-18T08:19:26.883Z,100907.17
2018-12-18T08:21:56.390Z,100909.55
2018-12-18T08:24:25.861Z,100912.65
2018-12-18T08:26:55.406Z,100909.34
2018-12-18T08:29:24.906Z,100908.05
2018-12-18T08:31:54.422Z,100913.80
2018-12-18T08:34:24.077Z,100917.85
2018-12-18T08:36:53.586Z,100923.25
2018-12-18T08:39:23.300Z,100926.66
2018-12-18T08:41:53.095Z,100926.20
2018-12-18T08:44:22.634Z,100931.31
2018-12-18T08:46:52.186Z,100928.64
2018-12-18T08:49:21.653Z,100927.12
2018-12-18T08:51:51.151Z,100927.89
2018-12-18T08:54:20.629Z,100925.63
2018-12-18T08:56:50.165Z,100925.61
2018-12-18T08:59:19.750Z,100920.31
2018-12-18T09:01:49.258Z,100917.69
2018-12-18T09:04:18.721Z,100923.72
2018-12-18T09:06:48.210Z,100927.14
2018-12-18T09:09:17.679Z,100919.17
2018-12-18T09:11:47.215Z,100916.50
2018-12-18T09:14:16.682Z,100915.56
2018-12-18T09:16:51.490Z,100921.39
2018-12-18T09:19:20.963Z,100917.20
2018-12-18T09:21:50.467Z,100914.17
2018-12-18T09:24:19.941Z,100920.69
2018-12-18T09:26:49.438Z,100914.34
2018-12-18T09:29:18.936Z,100911.97
2018-12-18T09:31:48.437Z,100909.59
2018-12-18T09:34:17.914Z,100906.73
2018-12-18T09:36:47.421Z,100907.67
2018-12-18T09:39:19.796Z,100898.49
2018-12-18T09:41:51.778Z,100894.23
2018-12-18T09:44:21.275Z,100882.77
2018-12-18T09:46:51.029Z,100871.31
2018-12-18T09:49:20.826Z,100865.47
2018-12-18T09:51:50.315Z,100859.05
2018-12-18T09:54:19.794Z,100850.66
2018-12-18T09:56:51.577Z,100842.54
2018-12-18T09:59:21.094Z,100843.20
2018-12-18T10:01:50.593Z,100846.66
2018-12-18T10:04:20.074Z,100849.70
2018-12-18T10:06:49.574Z,100845.09
2018-12-18T10:09:19.258Z,100844.13
2018-12-18T10:11:48.754Z,100843.84
2018-12-18T10:14:18.209Z,100841.64
2018-12-18T10:16:47.818Z,100836.34
2018-12-18T10:19:17.282Z,100835.09
2018-12-18T10:21:46.790Z,100839.44
2018-12-18T10:24:16.723Z,100830.83
2018-12-18T10:26:46.360Z,100819.19
2018-12-18T10:29:15.910Z,100818.03
2018-12-18T10:31:45.393Z,100826.47
2018-12-18T10:34:14.875Z,100829.44
2018-12-18T10:36:44.374Z,100842.20
2018-12-18T10:39:13.860Z,100836.96
2018-12-18T10:41:43.378Z,100831.77
2018-12-18T10:44:12.886Z,100832.61
2018-12-18T10:46:42.378Z,100835.19
2018-12-18T10:49:11.846Z,100831.49
2018-12-18T10:51:41.346Z,100821.17
2018-12-18T10:54:10.817Z,100814.81
2018-12-18T10:56:40.325Z,100814.61
2018-12-18T10:59:09.805Z,100807.02
2018-12-18T11:01:44.667Z,100813.70
2018-12-18T11:04:14.142Z,100808.22
2018-12-18T11:06:43.655Z,100809.84
2018-12-18T11:09:13.130Z,100807.89
2018-12-18T11:11:42.625Z,100808.09
2018-12-18T11:14:12.079Z,100791.91
2018-12-18T11:16:41.570Z,100784.03
2018-12-18T11:19:11.021Z,100780.96
2018-12-18T11:21:40.558Z,100777.09
2018-12-18T11:24:10.063Z,100786.38
2018-12-18T11:26:39.557Z,100776.48
2018-12-18T11:29:09.044Z,100773.91
2018-12-18T11:31:39.453Z,100769.02
2018-12-18T11:34:08.917Z,100765.05
2018-12-18T11:36:38.427Z,100755.23
2018-12-18T11:39:08.498Z,100757.91
2018-12-18T11:41:38.025Z,100745.17
2018-12-18T11:44:07.616Z,100749.05
2018-12-18T11:46:37.113Z,100746.21
2018-12-18T11:49:06.574Z,100741.16
2018-12-18T11:51:36.067Z,100742.25
2018-12-18T11:54:05.562Z,100748.77
2018-12-18T11:56:35.054Z,100751.80
2018-12-18T11:59:05.256Z,100739.88
2018-12-18T12:01:34.746Z,100734.97
2018-12-18T12:04:04.222Z,100728.77
2018-12-18T12:06:33.707Z,100728.95
2018-12-18T12:09:03.318Z,100731.47
2018-12-18T12:11:33.109Z,100722.36
2018-12-18T12:14:02.582Z,100720.21
2018-12-18T12:16:32.073Z,100710.79
2018-12-18T12:19:01.598Z,100715.59
2018-12-18T12:21:31.094Z,100720.66
2018-12-18T12:24:00.601Z,100705.33
2018-12-18T12:26:34.997Z,100709.05
2018-12-18T12:29:04.473Z,100707.79
2018-12-18T12:31:33.950Z,100690.53
2018-12-18T12:34:03.426Z,100692.25
2018-12-18T12:36:32.910Z,100697.02
2018-12-18T12:39:03.161Z,100689.13
2018-12-18T12:41:32.729Z,100689.75
2018-12-18T12:44:02.556Z,100685.56
2018-12-18T12:46:32.042Z,100685.36
2018-12-18T12:49:05.641Z,100684.92
2018-12-18T12:51:35.150Z,100691.32
2018-12-18T12:54:04.635Z,100687.87
2018-12-18T12:56:34.131Z,100688.89
2018-12-18T12:59:03.609Z,100680.21
2018-12-18T13:01:33.154Z,100681.66
2018-12-18T13:04:02.630Z,100681.52
2018-12-18T13:06:36.610Z,100681.28
2018-12-18T13:09:05.263Z,100673.55
2018-12-18T13:11:34.750Z,100670.80
2018-12-18T13:14:04.346Z,100664.16
2018-12-18T13:16:33.869Z,100662.59
2018-12-18T13:19:03.378Z,100656.41
2018-12-18T13:21:32.852Z,100655.34
2018-12-18T13:24:02.346Z,100661.91
2018-12-18T13:26:31.830Z,100652.12
2018-12-18T13:29:01.338Z,100656.11
2018-12-18T13:31:30.815Z,100660.32
2018-12-18T13:34:00.333Z,100659.95
2018-12-18T13:36:29.806Z,100652.56
2018-12-18T13:38:59.300Z,100648.20
2018-12-18T13:41:28.758Z,100637.13
2018-12-18T13:43:58.565Z,100637.23
2018-12-18T13:46:28.350Z,100637.94
2018-12-18T13:48:57.852Z,100628.97
2018-12-18T13:51:27.322Z,100618.20
2018-12-18T13:53:56.807Z,100620.95
2018-12-18T13:56:26.259Z,100619.30
2018-12-18T13:58:55.754Z,100620.14
2018-12-18T14:01:25.218Z,100616.69
2018-12-18T14:03:54.735Z,100612.83
2018-12-18T14:06:24.346Z,100601.80
2018-12-18T14:08:53.838Z,100602.84
2018-12-18T14:11:23.318Z,100600.09
2018-12-18T14:13:52.811Z,100593.44
2018-12-18T14:16:22.277Z,100593.19
2018-12-18T14:18:51.905Z,100594.00
2018-12-18T14:21:21.558Z,100585.00
2018-12-18T14:23:51.049Z,100581.77
2018-12-18T14:26:20.510Z,100582.01
2018-12-18T14:28:49.993Z,100582.13
2018-12-18T14:31:19.461Z,100583.68
2018-12-18T14:33:48.941Z,100587.60
2018-12-18T14:36:18.432Z,100585.44
2018-12-18T14:38:47.918Z,100585.87
2018-12-18T14:41:17.394Z,100588.52
2018-12-18T14:43:46.931Z,100592.13
2018-12-18T14:46:16.391Z,100589.49
2018-12-18T14:48:46.087Z,100598.20
2018-12-18T14:51:15.549Z,100593.44
2018-12-18T14:53:45.040Z,100596.73
2018-12-18T14:56:14.515Z,100600.06
2018-12-18T14:58:44.002Z,100593.06
2018-12-18T15:01:13.477Z,100586.51
2018-12-18T15:03:42.977Z,100585.56
2018-12-18T15:06:12.463Z,100583.97
2018-12-18T15:08:41.953Z,100590.98
2018-12-18T15:11:11.418Z,100594.42
2018-12-18T15:13:43.723Z,100585.57
2018-12-18T15:16:13.194Z,100589.73
2018-12-18T15:18:42.686Z,100583.75
2018-12-18T15:21:12.154Z,100583.60
2018-12-18T15:23:41.626Z,100576.33
2018-12-18T15:26:11.087Z,100575.34
2018-12-18T15:28:40.562Z,100582.70
2018-12-18T15:31:10.050Z,100577.84
2018-12-18T15:33:39.563Z,100579.78
2018-12-18T15:36:09.025Z,100579.32
2018-12-18T15:38:38.519Z,100576.44
2018-12-18T15:41:07.987Z,100579.58
2018-12-18T15:43:37.505Z,100580.23
2018-12-18T15:46:06.990Z,100574.02
2018-12-18T15:48:36.483Z,100573.59
2018-12-18T15:51:05.942Z,100570.72
2018-12-18T15:53:35.430Z,100558.61
2018-12-18T15:56:04.903Z,100561.41
2018-12-18T15:58:34.398Z,100569.73
2018-12-18T16:01:04.006Z,100565.69
2018-12-18T16:03:33.497Z,100557.85
2018-12-18T16:06:02.950Z,100556.15
2018-12-18T16:08:32.442Z,100547.25
2018-12-18T16:11:01.901Z,100549.48
2018-12-18T16:13:31.456Z,100548.19
2018-12-18T16:16:00.929Z,100547.36
2018-12-18T16:18:30.409Z,100543.34
2018-12-18T16:20:59.878Z,100541.80
2018-12-18T16:23:29.374Z,100538.62
2018-12-18T16:25:58.826Z,100541.95
2018-12-18T16:28:28.322Z,100535.33
2018-12-18T16:30:57.782Z,100534.27
2018-12-18T16:33:27.301Z,100529.08
2018-12-18T16:35:56.772Z,100531.05
2018-12-18T16:38:26.255Z,100526.69
2018-12-18T16:40:55.738Z,100523.66
2018-12-18T16:43:25.562Z,100526.31
2018-12-18T16:45:55.063Z,100524.64
2018-12-18T16:48:24.558Z,100519.16
2018-12-18T16:50:54.018Z,100523.89
2018-12-18T16:53:23.510Z,100518.70
2018-12-18T16:55:52.990Z,100518.13
2018-12-18T16:58:22.490Z,100507.70
2018-12-18T17:00:52.354Z,100512.45
2018-12-18T17:03:21.858Z,100510.80
2018-12-18T17:05:51.341Z,100506.94
2018-12-18T17:08:20.844Z,100504.18
2018-12-18T17:10:50.303Z,100499.64
2018-12-18T17:13:19.801Z,100498.16
2018-12-18T17:15:49.306Z,100494.75
2018-12-18T17:18:18.798Z,100489.34
2018-12-18T17:20:48.822Z,100494.45
2018-12-18T17:23:18.321Z,100490.25
2018-12-18T17:25:47.786Z,100492.22
2018-12-18T17:28:17.289Z,100496.66
2018-12-18T17:30:46.745Z,100488.25
2018-12-18T17:33:16.240Z,100488.55
2018-12-18T17:35:45.774Z,100488.50
2018-12-18T17:38:15.522Z,100486.45
2018-12-18T17:40:45.442Z,100495.08
2018-12-18T17:43:15.025Z,100498.18
2018-12-18T17:45:50.985Z,100485.48
2018-12-18T17:48:20.478Z,100491.78
2018-12-18T17:50:49.933Z,100488.48
2018-12-18T17:53:19.462Z,100484.37
2018-12-18T17:55:48.932Z,100473.50
2018-12-18T17:58:18.389Z,100471.84
2018-12-18T18:00:47.881Z,100468.55
2018-12-18T18:03:17.338Z,100471.56
2018-12-18T18:05:46.814Z,100468.05
2018-12-18T18:08:16.328Z,100470.16
2018-12-18T18:10:45.787Z,100466.46
2018-12-18T18:13:15.251Z,100470.54
2018-12-18T18:15:44.950Z,100469.27
2018-12-18T18:18:14.407Z,100468.27
2018-12-18T18:20:43.875Z,100469.33
2018-12-18T18:23:13.370Z,100469.86
2018-12-18T18:25:42.984Z,100465.41
2018-12-18T18:28:12.445Z,100472.52
2018-12-18T18:30:42.245Z,100471.86
2018-12-18T18:33:11.716Z,100460.74
2018-12-18T18:35:41.313Z,100453.75
2018-12-18T18:38:10.846Z,100458.25
2018-12-18T18:40:40.324Z,100447.57
2018-12-18T18:43:09.798Z,100445.33
2018-12-18T18:45:39.346Z,100438.33
2018-12-18T18:48:08.820Z,100427.13
2018-12-18T18:50:38.290Z,100424.97
2018-12-18T18:53:07.805Z,100426.23
2018-12-18T18:55:37.261Z,100428.97
2018-12-18T18:58:06.726Z,100424.54
2018-12-18T19:00:36.246Z,100422.27
2018-12-18T19:03:05.706Z,100420.46
2018-12-18T19:05:35.176Z,100417.22
2018-12-18T19:08:04.722Z,100413.73
2018-12-18T19:10:34.178Z,100411.36
2018-12-18T19:13:03.646Z,100416.48
2018-12-18T19:15:33.172Z,100403.42
2018-12-18T19:18:02.638Z,100412.14
2018-12-18T19:20:32.128Z,100406.06
2018-12-18T19:23:02.036Z,100399.03
2018-12-18T19:25:31.518Z,100395.64
2018-12-18T19:28:00.978Z,100393.09
2018-12-18T19:30:30.493Z,100391.40
2018-12-18T19:32:59.966Z,100385.42
2018-12-18T19:35:29.522Z,100380.52
2018-12-18T19:38:03.188Z,100377.27
2018-12-18T19:40:30.586Z,100385.28
2018-12-18T19:43:00.130Z,100378.39
2018-12-18T19:45:29.654Z,100363.58
2018-12-18T19:47:59.255Z,100367.09
2018-12-18T19:50:28.828Z,100363.09
2018-12-18T19:52:58.339Z,100358.55
2018-12-18T19:55:27.822Z,100355.03
2018-12-18T19:57:57.350Z,100358.06
2018-12-18T20:00:26.827Z,100347.36
2018-12-18T20:02:56.305Z,100347.25
2018-12-18T20:05:25.841Z,100340.02
2018-12-18T20:07:55.341Z,100333.30
2018-12-18T20:10:24.819Z,100332.08
2018-12-18T20:12:54.342Z,100327.47
2018-12-18T20:15:23.799Z,100326.45
2018-12-18T20:17:53.461Z,100319.95
2018-12-18T20:20:23.082Z,100313.14
2018-12-18T20:22:52.554Z,100313.30
2018-12-18T20:25:22.118Z,100305.94
2018-12-18T20:27:51.646Z,100298.41
2018-12-18T20:30:21.110Z,100302.94
2018-12-18T20:32:50.576Z,100289.19
2018-12-18T20:35:20.172Z,100288.06
2018-12-18T20:37:49.634Z,100276.87
2018-12-18T20:40:19.105Z,100267.61
2018-12-18T20:42:48.626Z,100274.75
2018-12-18T20:45:18.105Z,100276.00
2018-12-18T20:47:47.666Z,100269.69
2018-12-18T20:50:17.497Z,100253.59
2018-12-18T20:52:47.262Z,100250.11
2018-12-18T20:55:17.162Z,100243.34
2018-12-18T20:57:46.616Z,100241.05
2018-12-18T21:00:16.130Z,100233.56
2018-12-18T21:02:46.182Z,100226.95
2018-12-18T21:05:15.690Z,100233.05
2018-12-18T21:07:45.390Z,100229.25
2018-12-18T21:10:14.898Z,100224.77
2018-12-18T21:12:44.354Z,100237.65
2018-12-18T21:15:13.824Z,100225.59
2018-12-18T21:17:43.322Z,100219.09
2018-12-18T21:20:13.692Z,100214.91
2018-12-18T21:22:43.322Z,100205.79
2018-12-18T21:25:18.775Z,100202.54
2018-12-18T21:27:44.543Z,100198.66
2018-12-18T21:30:14.193Z,100206.02
2018-12-18T21:32:43.673Z,100209.67
2018-12-18T21:35:13.145Z,100202.88
2018-12-18T21:37:42.655Z,100202.85
2018-12-18T21:40:12.106Z,100201.23
2018-12-18T21:42:41.579Z,100201.27
2018-12-18T21:45:11.095Z,100202.13
2018-12-18T21:47:40.568Z,100208.67
2018-12-18T21:50:10.465Z,100206.75
2018-12-18T21:52:40.040Z,100199.92
2018-12-18T21:55:09.511Z,100208.91
2018-12-18T21:57:38.975Z,100212.98
2018-12-18T22:00:11.882Z,100216.99
2018-12-18T22:02:41.406Z,100222.12
2018-12-18T22:05:11.798Z,100221.19
2018-12-18T22:07:41.272Z,100211.77
2018-12-18T22:10:10.905Z,100209.39
2018-12-18T22:12:40.409Z,100198.59
2018-12-18T22:15:10.871Z,100190.17
2018-12-18T22:17:40.940Z,100184.16
2018-12-18T22:20:10.402Z,100189.19
2018-12-18T22:22:39.854Z,100184.58
2018-12-18T22:25:09.378Z,100176.27
2018-12-18T22:27:38.840Z,100174.27
2018-12-18T22:30:09.414Z,100168.86
2018-12-18T22:32:39.014Z,100161.95
2018-12-18T22:35:08.614Z,100159.31
2018-12-18T22:37:38.118Z,100155.75
2018-12-18T22:40:07.610Z,100154.32
2018-12-18T22:42:37.066Z,100145.06
2018-12-18T22:45:06.734Z,100149.32
2018-12-18T22:47:36.222Z,100129.03
2018-12-18T22:50:06.605Z,100135.95
2018-12-18T22:52:36.061Z,100135.23
2018-12-18T22:55:05.665Z,100122.84
2018-12-18T22:57:35.570Z,100130.00
2018-12-18T23:00:06.658Z,100124.14
2018-12-18T23:02:36.338Z,100115.27
2018-12-18T23:05:06.179Z,100116.78
2018-12-18T23:07:35.639Z,100103.70
2018-12-18T23:10:05.867Z,100096.41
2018-12-18T23:12:35.331Z,100096.41
2018-12-18T23:15:05.222Z,100095.71
2018-12-18T23:17:34.682Z,100089.38
2018-12-18T23:20:04.482Z,100087.42
2018-12-18T23:22:33.971Z,100090.19
2018-12-18T23:25:03.441Z,100094.97
2018-12-18T23:27:32.910Z,100091.09
2018-12-18T23:30:02.430Z,100087.75
2018-12-18T23:32:31.989Z,100083.02
2018-12-18T23:35:01.442Z,100079.59
2018-12-18T23:37:31.005Z,100084.77
2018-12-18T23:40:00.934Z,100074.42
2018-12-18T23:42:30.433Z,100065.74
2018-12-18T23:44:59.964Z,100060.55
2018-12-18T23:47:29.418Z,100051.46
2018-12-18T23:49:58.906Z,100056.00
2018-12-18T23:52:28.622Z,100046.72
2018-12-18T23:54:58.128Z,100036.55
2018-12-18T23:57:27.589Z,100027.96
2018-12-18T23:59:57.056Z,100015.70
